sensor_id;sensor_type;location;lat;lon;timestamp;P1;durP1;ratioP1;P2;durP2;ratioP2
3991;SDS011;2010;48.194;16.394;2023-05-01T00:01:15;11.87;;;4.20;;
3991;SDS011;2010;48.194;16.394;2023-05-01T00:03:47;6.60;;;4.90;;
3991;SDS011;2010;48.194;16.394;2023-05-01T00:06:22;5.13;;;3.60;;
3991;SDS011;2010;48.194;16.394;2023-05-01T00:08:55;5.77;;;3.80;;
3991;SDS011;2010;48.194;16.394;2023-05-01T00:11:35;4.87;;;4.40;;
3991;SDS011;2010;48.194;16.394;2023-05-01T00:14:05;5.00;;;4.50;;
3991;SDS011;2010;48.194;16.394;2023-05-01T00:16:36;5.53;;;4.03;;
3991;SDS011;2010;48.194;16.394;2023-05-01T00:19:13;5.60;;;4.40;;
3991;SDS011;2010;48.194;16.394;2023-05-01T00:21:49;6.63;;;4.50;;
3991;SDS011;2010;48.194;16.394;2023-05-01T00:24:21;5.50;;;4.07;;
3991;SDS011;2010;48.194;16.394;2023-05-01T00:27:00;4.43;;;3.67;;
3991;SDS011;2010;48.194;16.394;2023-05-01T00:29:36;5.73;;;4.10;;
3991;SDS011;2010;48.194;16.394;2023-05-01T00:32:15;8.60;;;5.00;;
3991;SDS011;2010;48.194;16.394;2023-05-01T00:34:52;8.30;;;4.40;;
3991;SDS011;2010;48.194;16.394;2023-05-01T00:37:22;5.10;;;4.47;;
3991;SDS011;2010;48.194;16.394;2023-05-01T00:39:53;5.37;;;4.10;;
3991;SDS011;2010;48.194;16.394;2023-05-01T00:42:26;5.30;;;4.60;;
3991;SDS011;2010;48.194;16.394;2023-05-01T00:44:57;4.43;;;4.03;;
3991;SDS011;2010;48.194;16.394;2023-05-01T00:47:25;7.53;;;4.13;;
3991;SDS011;2010;48.194;16.394;2023-05-01T00:49:54;4.60;;;4.20;;
3991;SDS011;2010;48.194;16.394;2023-05-01T00:52:29;6.00;;;4.17;;
3991;SDS011;2010;48.194;16.394;2023-05-01T00:55:01;6.13;;;4.00;;
3991;SDS011;2010;48.194;16.394;2023-05-01T00:57:33;8.70;;;4.80;;
3991;SDS011;2010;48.194;16.394;2023-05-01T01:00:09;7.83;;;4.47;;
3991;SDS011;2010;48.194;16.394;2023-05-01T01:02:42;5.70;;;3.70;;
3991;SDS011;2010;48.194;16.394;2023-05-01T01:05:19;4.87;;;4.33;;
3991;SDS011;2010;48.194;16.394;2023-05-01T01:07:58;4.93;;;4.03;;
3991;SDS011;2010;48.194;16.394;2023-05-01T01:10:36;4.40;;;4.00;;
3991;SDS011;2010;48.194;16.394;2023-05-01T01:13:19;7.30;;;4.80;;
3991;SDS011;2010;48.194;16.394;2023-05-01T01:15:55;8.97;;;4.57;;
3991;SDS011;2010;48.194;16.394;2023-05-01T01:18:32;8.63;;;4.30;;
3991;SDS011;2010;48.194;16.394;2023-05-01T01:21:07;6.30;;;4.00;;
3991;SDS011;2010;48.194;16.394;2023-05-01T01:29:54;4.53;;;4.13;;
3991;SDS011;2010;48.194;16.394;2023-05-01T01:36:30;4.67;;;3.93;;
3991;SDS011;2010;48.194;16.394;2023-05-01T01:39:06;8.40;;;4.10;;
3991;SDS011;2010;48.194;16.394;2023-05-01T01:41:40;6.53;;;4.20;;
3991;SDS011;2010;48.194;16.394;2023-05-01T01:44:18;5.90;;;4.00;;
3991;SDS011;2010;48.194;16.394;2023-05-01T01:47:04;3.70;;;3.37;;
3991;SDS011;2010;48.194;16.394;2023-05-01T01:49:37;5.20;;;4.13;;
3991;SDS011;2010;48.194;16.394;2023-05-01T01:52:14;5.93;;;4.30;;
3991;SDS011;2010;48.194;16.394;2023-05-01T01:54:49;7.33;;;3.80;;
3991;SDS011;2010;48.194;16.394;2023-05-01T01:57:20;6.07;;;4.30;;
3991;SDS011;2010;48.194;16.394;2023-05-01T01:59:52;6.90;;;4.20;;
3991;SDS011;2010;48.194;16.394;2023-05-01T02:02:26;6.80;;;4.03;;
3991;SDS011;2010;48.194;16.394;2023-05-01T02:04:59;5.37;;;3.80;;
3991;SDS011;2010;48.194;16.394;2023-05-01T02:07:44;5.37;;;4.50;;
3991;SDS011;2010;48.194;16.394;2023-05-01T02:10:16;6.67;;;3.87;;
3991;SDS011;2010;48.194;16.394;2023-05-01T02:12:48;4.83;;;3.80;;
3991;SDS011;2010;48.194;16.394;2023-05-01T02:15:20;7.20;;;3.43;;
3991;SDS011;2010;48.194;16.394;2023-05-01T02:17:51;6.43;;;4.03;;
3991;SDS011;2010;48.194;16.394;2023-05-01T02:20:23;6.70;;;3.83;;
3991;SDS011;2010;48.194;16.394;2023-05-01T02:22:59;5.63;;;3.43;;
3991;SDS011;2010;48.194;16.394;2023-05-01T02:25:30;5.27;;;3.97;;
3991;SDS011;2010;48.194;16.394;2023-05-01T02:28:03;5.97;;;4.73;;
3991;SDS011;2010;48.194;16.394;2023-05-01T02:30:41;10.23;;;4.10;;
3991;SDS011;2010;48.194;16.394;2023-05-01T02:33:10;7.50;;;4.43;;
3991;SDS011;2010;48.194;16.394;2023-05-01T02:35:43;12.37;;;4.40;;
3991;SDS011;2010;48.194;16.394;2023-05-01T02:38:20;10.47;;;4.30;;
3991;SDS011;2010;48.194;16.394;2023-05-01T02:41:00;3.30;;;3.00;;
3991;SDS011;2010;48.194;16.394;2023-05-01T02:43:32;8.30;;;3.60;;
3991;SDS011;2010;48.194;16.394;2023-05-01T02:46:04;10.40;;;4.50;;
3991;SDS011;2010;48.194;16.394;2023-05-01T02:48:34;5.43;;;3.80;;
3991;SDS011;2010;48.194;16.394;2023-05-01T02:51:06;5.70;;;4.50;;
3991;SDS011;2010;48.194;16.394;2023-05-01T02:53:40;4.73;;;4.13;;
3991;SDS011;2010;48.194;16.394;2023-05-01T02:56:20;4.93;;;3.80;;
3991;SDS011;2010;48.194;16.394;2023-05-01T02:58:49;5.83;;;4.30;;
3991;SDS011;2010;48.194;16.394;2023-05-01T03:01:18;6.60;;;4.00;;
3991;SDS011;2010;48.194;16.394;2023-05-01T03:03:52;3.90;;;3.60;;
3991;SDS011;2010;48.194;16.394;2023-05-01T03:06:31;7.47;;;4.00;;
3991;SDS011;2010;48.194;16.394;2023-05-01T03:09:05;6.60;;;3.93;;
3991;SDS011;2010;48.194;16.394;2023-05-01T03:11:40;7.97;;;4.13;;
3991;SDS011;2010;48.194;16.394;2023-05-01T03:14:17;7.47;;;3.80;;
3991;SDS011;2010;48.194;16.394;2023-05-01T03:16:53;6.30;;;4.00;;
3991;SDS011;2010;48.194;16.394;2023-05-01T03:19:37;5.07;;;3.63;;
3991;SDS011;2010;48.194;16.394;2023-05-01T03:22:09;5.23;;;3.90;;
3991;SDS011;2010;48.194;16.394;2023-05-01T03:24:55;9.80;;;4.10;;
3991;SDS011;2010;48.194;16.394;2023-05-01T03:27:27;7.50;;;4.23;;
3991;SDS011;2010;48.194;16.394;2023-05-01T03:29:57;8.43;;;3.90;;
3991;SDS011;2010;48.194;16.394;2023-05-01T03:32:28;9.43;;;3.90;;
3991;SDS011;2010;48.194;16.394;2023-05-01T03:34:59;7.93;;;4.03;;
3991;SDS011;2010;48.194;16.394;2023-05-01T03:37:30;5.60;;;3.87;;
3991;SDS011;2010;48.194;16.394;2023-05-01T03:40:08;10.37;;;4.23;;
3991;SDS011;2010;48.194;16.394;2023-05-01T03:42:59;7.00;;;4.47;;
3991;SDS011;2010;48.194;16.394;2023-05-01T03:45:36;7.97;;;3.90;;
3991;SDS011;2010;48.194;16.394;2023-05-01T03:48:05;6.10;;;4.50;;
3991;SDS011;2010;48.194;16.394;2023-05-01T03:50:37;4.90;;;3.90;;
3991;SDS011;2010;48.194;16.394;2023-05-01T03:53:08;4.87;;;3.63;;
3991;SDS011;2010;48.194;16.394;2023-05-01T03:55:49;5.10;;;4.60;;
3991;SDS011;2010;48.194;16.394;2023-05-01T03:58:28;4.93;;;4.07;;
3991;SDS011;2010;48.194;16.394;2023-05-01T04:01:06;9.97;;;4.00;;
3991;SDS011;2010;48.194;16.394;2023-05-01T04:03:42;6.70;;;4.40;;
3991;SDS011;2010;48.194;16.394;2023-05-01T04:06:15;5.37;;;4.10;;
3991;SDS011;2010;48.194;16.394;2023-05-01T04:08:45;5.50;;;4.43;;
3991;SDS011;2010;48.194;16.394;2023-05-01T04:11:23;5.93;;;4.40;;
3991;SDS011;2010;48.194;16.394;2023-05-01T04:13:54;11.70;;;4.27;;
3991;SDS011;2010;48.194;16.394;2023-05-01T04:16:25;6.40;;;4.53;;
3991;SDS011;2010;48.194;16.394;2023-05-01T04:18:55;4.93;;;3.93;;
3991;SDS011;2010;48.194;16.394;2023-05-01T04:21:24;7.90;;;4.83;;
3991;SDS011;2010;48.194;16.394;2023-05-01T04:23:55;9.37;;;4.57;;
3991;SDS011;2010;48.194;16.394;2023-05-01T04:26:33;7.00;;;3.93;;
3991;SDS011;2010;48.194;16.394;2023-05-01T04:29:12;7.50;;;5.07;;
3991;SDS011;2010;48.194;16.394;2023-05-01T04:31:43;6.17;;;4.23;;
3991;SDS011;2010;48.194;16.394;2023-05-01T04:34:12;4.70;;;3.60;;
3991;SDS011;2010;48.194;16.394;2023-05-01T04:36:43;6.70;;;4.33;;
3991;SDS011;2010;48.194;16.394;2023-05-01T04:39:13;8.73;;;5.17;;
3991;SDS011;2010;48.194;16.394;2023-05-01T04:41:49;5.47;;;4.97;;
3991;SDS011;2010;48.194;16.394;2023-05-01T04:44:19;8.33;;;5.20;;
3991;SDS011;2010;48.194;16.394;2023-05-01T04:47:01;7.73;;;5.87;;
3991;SDS011;2010;48.194;16.394;2023-05-01T04:49:31;8.47;;;5.33;;
3991;SDS011;2010;48.194;16.394;2023-05-01T04:52:02;5.20;;;4.47;;
3991;SDS011;2010;48.194;16.394;2023-05-01T04:54:51;10.57;;;6.03;;
3991;SDS011;2010;48.194;16.394;2023-05-01T04:57:34;8.30;;;4.97;;
3991;SDS011;2010;48.194;16.394;2023-05-01T05:00:08;7.40;;;5.00;;
3991;SDS011;2010;48.194;16.394;2023-05-01T05:02:50;8.93;;;4.70;;
3991;SDS011;2010;48.194;16.394;2023-05-01T05:05:29;6.40;;;4.17;;
3991;SDS011;2010;48.194;16.394;2023-05-01T05:08:06;5.50;;;4.40;;
3991;SDS011;2010;48.194;16.394;2023-05-01T05:10:40;7.70;;;5.13;;
3991;SDS011;2010;48.194;16.394;2023-05-01T05:13:44;6.00;;;4.70;;
3991;SDS011;2010;48.194;16.394;2023-05-01T05:16:15;4.97;;;4.47;;
3991;SDS011;2010;48.194;16.394;2023-05-01T05:18:45;9.57;;;4.70;;
3991;SDS011;2010;48.194;16.394;2023-05-01T05:21:22;9.20;;;4.50;;
3991;SDS011;2010;48.194;16.394;2023-05-01T05:23:55;5.97;;;4.30;;
3991;SDS011;2010;48.194;16.394;2023-05-01T05:26:33;8.13;;;5.20;;
3991;SDS011;2010;48.194;16.394;2023-05-01T05:29:05;5.60;;;4.27;;
3991;SDS011;2010;48.194;16.394;2023-05-01T05:31:37;7.27;;;4.20;;
3991;SDS011;2010;48.194;16.394;2023-05-01T05:34:06;6.33;;;4.70;;
3991;SDS011;2010;48.194;16.394;2023-05-01T05:36:36;5.67;;;4.70;;
3991;SDS011;2010;48.194;16.394;2023-05-01T05:39:09;6.37;;;4.57;;
3991;SDS011;2010;48.194;16.394;2023-05-01T05:41:43;4.93;;;4.40;;
3991;SDS011;2010;48.194;16.394;2023-05-01T05:44:15;5.03;;;4.50;;
3991;SDS011;2010;48.194;16.394;2023-05-01T05:46:51;7.10;;;4.80;;
3991;SDS011;2010;48.194;16.394;2023-05-01T05:49:27;6.63;;;4.30;;
3991;SDS011;2010;48.194;16.394;2023-05-01T05:51:55;6.60;;;4.63;;
3991;SDS011;2010;48.194;16.394;2023-05-01T05:54:24;7.80;;;4.57;;
3991;SDS011;2010;48.194;16.394;2023-05-01T05:56:55;7.07;;;4.33;;
3991;SDS011;2010;48.194;16.394;2023-05-01T05:59:44;8.17;;;4.83;;
3991;SDS011;2010;48.194;16.394;2023-05-01T06:02:23;5.80;;;4.20;;
3991;SDS011;2010;48.194;16.394;2023-05-01T06:04:52;6.43;;;5.27;;
3991;SDS011;2010;48.194;16.394;2023-05-01T06:07:25;6.33;;;4.80;;
3991;SDS011;2010;48.194;16.394;2023-05-01T06:09:54;6.57;;;5.10;;
3991;SDS011;2010;48.194;16.394;2023-05-01T06:12:28;5.97;;;4.57;;
3991;SDS011;2010;48.194;16.394;2023-05-01T06:15:05;12.07;;;5.17;;
3991;SDS011;2010;48.194;16.394;2023-05-01T06:17:43;6.80;;;4.07;;
3991;SDS011;2010;48.194;16.394;2023-05-01T06:20:15;9.37;;;5.27;;
3991;SDS011;2010;48.194;16.394;2023-05-01T06:22:50;6.93;;;5.50;;
3991;SDS011;2010;48.194;16.394;2023-05-01T06:25:41;6.30;;;4.90;;
3991;SDS011;2010;48.194;16.394;2023-05-01T06:28:20;7.30;;;4.73;;
3991;SDS011;2010;48.194;16.394;2023-05-01T06:30:50;5.90;;;4.77;;
3991;SDS011;2010;48.194;16.394;2023-05-01T06:33:26;9.40;;;5.70;;
3991;SDS011;2010;48.194;16.394;2023-05-01T06:36:07;7.40;;;5.67;;
3991;SDS011;2010;48.194;16.394;2023-05-01T06:38:36;7.10;;;4.53;;
3991;SDS011;2010;48.194;16.394;2023-05-01T06:41:09;6.20;;;5.60;;
3991;SDS011;2010;48.194;16.394;2023-05-01T06:43:41;11.30;;;5.40;;
3991;SDS011;2010;48.194;16.394;2023-05-01T06:46:13;9.20;;;5.80;;
3991;SDS011;2010;48.194;16.394;2023-05-01T06:48:42;6.53;;;5.77;;
3991;SDS011;2010;48.194;16.394;2023-05-01T06:51:13;6.73;;;5.20;;
3991;SDS011;2010;48.194;16.394;2023-05-01T06:53:45;8.93;;;5.10;;
3991;SDS011;2010;48.194;16.394;2023-05-01T06:56:17;7.03;;;5.47;;
3991;SDS011;2010;48.194;16.394;2023-05-01T06:58:49;6.57;;;5.40;;
3991;SDS011;2010;48.194;16.394;2023-05-01T07:01:25;7.80;;;5.20;;
3991;SDS011;2010;48.194;16.394;2023-05-01T07:03:57;6.30;;;5.40;;
3991;SDS011;2010;48.194;16.394;2023-05-01T07:06:33;8.30;;;5.50;;
3991;SDS011;2010;48.194;16.394;2023-05-01T07:09:02;8.10;;;5.63;;
3991;SDS011;2010;48.194;16.394;2023-05-01T07:11:37;10.63;;;5.60;;
3991;SDS011;2010;48.194;16.394;2023-05-01T07:14:10;8.10;;;5.47;;
3991;SDS011;2010;48.194;16.394;2023-05-01T07:16:51;9.90;;;5.67;;
3991;SDS011;2010;48.194;16.394;2023-05-01T07:19:22;7.60;;;5.30;;
3991;SDS011;2010;48.194;16.394;2023-05-01T07:21:54;5.23;;;4.73;;
3991;SDS011;2010;48.194;16.394;2023-05-01T07:24:23;6.77;;;5.53;;
3991;SDS011;2010;48.194;16.394;2023-05-01T07:26:54;10.33;;;6.90;;
3991;SDS011;2010;48.194;16.394;2023-05-01T07:29:30;7.00;;;5.27;;
3991;SDS011;2010;48.194;16.394;2023-05-01T07:32:03;8.23;;;5.87;;
3991;SDS011;2010;48.194;16.394;2023-05-01T07:34:33;7.40;;;5.90;;
3991;SDS011;2010;48.194;16.394;2023-05-01T07:37:02;9.90;;;6.30;;
3991;SDS011;2010;48.194;16.394;2023-05-01T07:39:32;83.40;;;32.93;;
3991;SDS011;2010;48.194;16.394;2023-05-01T07:42:03;51.10;;;22.60;;
3991;SDS011;2010;48.194;16.394;2023-05-01T07:44:33;31.33;;;14.83;;
3991;SDS011;2010;48.194;16.394;2023-05-01T07:47:08;17.10;;;10.50;;
3991;SDS011;2010;48.194;16.394;2023-05-01T07:49:40;12.27;;;8.13;;
3991;SDS011;2010;48.194;16.394;2023-05-01T07:52:10;10.43;;;6.47;;
3991;SDS011;2010;48.194;16.394;2023-05-01T07:54:40;7.63;;;5.90;;
3991;SDS011;2010;48.194;16.394;2023-05-01T07:57:17;8.20;;;5.43;;
3991;SDS011;2010;48.194;16.394;2023-05-01T07:59:55;10.23;;;5.60;;
3991;SDS011;2010;48.194;16.394;2023-05-01T08:03:07;6.20;;;5.20;;
3991;SDS011;2010;48.194;16.394;2023-05-01T08:05:39;10.43;;;6.30;;
3991;SDS011;2010;48.194;16.394;2023-05-01T08:08:11;8.80;;;5.70;;
3991;SDS011;2010;48.194;16.394;2023-05-01T08:10:49;14.17;;;6.47;;
3991;SDS011;2010;48.194;16.394;2023-05-01T08:13:20;8.87;;;5.60;;
3991;SDS011;2010;48.194;16.394;2023-05-01T08:15:51;7.50;;;5.40;;
3991;SDS011;2010;48.194;16.394;2023-05-01T08:18:24;11.23;;;6.10;;
3991;SDS011;2010;48.194;16.394;2023-05-01T08:20:58;6.60;;;5.60;;
3991;SDS011;2010;48.194;16.394;2023-05-01T08:23:27;7.00;;;5.23;;
3991;SDS011;2010;48.194;16.394;2023-05-01T08:25:59;8.93;;;6.73;;
3991;SDS011;2010;48.194;16.394;2023-05-01T08:28:28;6.00;;;5.40;;
3991;SDS011;2010;48.194;16.394;2023-05-01T08:31:00;8.70;;;6.17;;
3991;SDS011;2010;48.194;16.394;2023-05-01T08:33:31;5.93;;;5.30;;
3991;SDS011;2010;48.194;16.394;2023-05-01T08:36:08;6.67;;;6.00;;
3991;SDS011;2010;48.194;16.394;2023-05-01T08:38:36;6.77;;;5.63;;
3991;SDS011;2010;48.194;16.394;2023-05-01T08:41:06;6.33;;;5.73;;
3991;SDS011;2010;48.194;16.394;2023-05-01T08:43:36;8.83;;;5.83;;
3991;SDS011;2010;48.194;16.394;2023-05-01T08:46:08;7.90;;;6.90;;
3991;SDS011;2010;48.194;16.394;2023-05-01T08:48:46;6.83;;;5.23;;
3991;SDS011;2010;48.194;16.394;2023-05-01T08:51:27;9.13;;;6.13;;
3991;SDS011;2010;48.194;16.394;2023-05-01T08:54:00;6.83;;;5.53;;
3991;SDS011;2010;48.194;16.394;2023-05-01T08:56:36;6.80;;;5.90;;
3991;SDS011;2010;48.194;16.394;2023-05-01T08:59:10;8.93;;;5.53;;
3991;SDS011;2010;48.194;16.394;2023-05-01T09:01:40;6.53;;;5.87;;
3991;SDS011;2010;48.194;16.394;2023-05-01T09:04:17;7.07;;;4.60;;
3991;SDS011;2010;48.194;16.394;2023-05-01T09:06:49;6.33;;;4.60;;
3991;SDS011;2010;48.194;16.394;2023-05-01T09:09:18;7.27;;;4.57;;
3991;SDS011;2010;48.194;16.394;2023-05-01T09:11:52;7.53;;;4.60;;
3991;SDS011;2010;48.194;16.394;2023-05-01T09:14:23;7.93;;;4.80;;
3991;SDS011;2010;48.194;16.394;2023-05-01T09:16:51;5.63;;;3.70;;
3991;SDS011;2010;48.194;16.394;2023-05-01T09:19:24;8.60;;;4.63;;
3991;SDS011;2010;48.194;16.394;2023-05-01T09:21:55;8.43;;;4.30;;
3991;SDS011;2010;48.194;16.394;2023-05-01T09:24:27;4.40;;;4.00;;
3991;SDS011;2010;48.194;16.394;2023-05-01T09:27:00;3.50;;;3.20;;
3991;SDS011;2010;48.194;16.394;2023-05-01T09:29:37;5.90;;;4.07;;
3991;SDS011;2010;48.194;16.394;2023-05-01T09:32:13;5.47;;;4.83;;
3991;SDS011;2010;48.194;16.394;2023-05-01T09:34:48;5.20;;;4.00;;
3991;SDS011;2010;48.194;16.394;2023-05-01T09:37:25;6.43;;;4.43;;
3991;SDS011;2010;48.194;16.394;2023-05-01T09:40:02;6.07;;;4.10;;
3991;SDS011;2010;48.194;16.394;2023-05-01T09:42:38;4.33;;;3.90;;
3991;SDS011;2010;48.194;16.394;2023-05-01T09:45:11;5.80;;;4.30;;
3991;SDS011;2010;48.194;16.394;2023-05-01T09:47:43;4.17;;;3.73;;
3991;SDS011;2010;48.194;16.394;2023-05-01T09:50:27;4.63;;;4.00;;
3991;SDS011;2010;48.194;16.394;2023-05-01T09:53:03;7.60;;;4.40;;
3991;SDS011;2010;48.194;16.394;2023-05-01T09:55:32;8.10;;;3.93;;
3991;SDS011;2010;48.194;16.394;2023-05-01T09:58:04;6.50;;;3.90;;
3991;SDS011;2010;48.194;16.394;2023-05-01T10:00:46;6.40;;;4.10;;
3991;SDS011;2010;48.194;16.394;2023-05-01T10:03:19;6.30;;;3.93;;
3991;SDS011;2010;48.194;16.394;2023-05-01T10:05:53;7.87;;;4.23;;
3991;SDS011;2010;48.194;16.394;2023-05-01T10:08:46;4.80;;;4.20;;
3991;SDS011;2010;48.194;16.394;2023-05-01T10:11:49;5.40;;;4.27;;
3991;SDS011;2010;48.194;16.394;2023-05-01T10:14:21;4.73;;;4.17;;
3991;SDS011;2010;48.194;16.394;2023-05-01T10:16:51;4.20;;;3.80;;
3991;SDS011;2010;48.194;16.394;2023-05-01T10:19:24;3.90;;;3.60;;
3991;SDS011;2010;48.194;16.394;2023-05-01T10:22:06;4.60;;;4.10;;
3991;SDS011;2010;48.194;16.394;2023-05-01T10:24:35;4.40;;;4.00;;
3991;SDS011;2010;48.194;16.394;2023-05-01T10:27:04;4.40;;;3.33;;
3991;SDS011;2010;48.194;16.394;2023-05-01T10:29:36;3.90;;;3.50;;
3991;SDS011;2010;48.194;16.394;2023-05-01T10:32:05;3.83;;;3.53;;
3991;SDS011;2010;48.194;16.394;2023-05-01T10:34:39;4.40;;;4.00;;
3991;SDS011;2010;48.194;16.394;2023-05-01T10:37:15;5.47;;;4.00;;
3991;SDS011;2010;48.194;16.394;2023-05-01T10:39:52;5.67;;;4.17;;
3991;SDS011;2010;48.194;16.394;2023-05-01T10:42:28;4.23;;;3.80;;
3991;SDS011;2010;48.194;16.394;2023-05-01T10:45:03;4.23;;;3.83;;
3991;SDS011;2010;48.194;16.394;2023-05-01T10:47:56;5.83;;;4.30;;
3991;SDS011;2010;48.194;16.394;2023-05-01T10:57:01;3.83;;;3.43;;
3991;SDS011;2010;48.194;16.394;2023-05-01T11:02:48;4.47;;;3.70;;
3991;SDS011;2010;48.194;16.394;2023-05-01T11:05:18;3.83;;;3.53;;
3991;SDS011;2010;48.194;16.394;2023-05-01T11:11:06;5.47;;;3.53;;
3991;SDS011;2010;48.194;16.394;2023-05-01T11:14:22;3.70;;;3.40;;
3991;SDS011;2010;48.194;16.394;2023-05-01T11:16:51;3.60;;;3.30;;
3991;SDS011;2010;48.194;16.394;2023-05-01T11:22:19;3.70;;;3.20;;
3991;SDS011;2010;48.194;16.394;2023-05-01T11:24:49;3.07;;;2.80;;
3991;SDS011;2010;48.194;16.394;2023-05-01T11:27:21;2.80;;;2.60;;
3991;SDS011;2010;48.194;16.394;2023-05-01T11:29:52;4.93;;;3.40;;
3991;SDS011;2010;48.194;16.394;2023-05-01T11:32:24;4.30;;;3.80;;
3991;SDS011;2010;48.194;16.394;2023-05-01T11:34:57;5.63;;;2.90;;
3991;SDS011;2010;48.194;16.394;2023-05-01T11:37:41;3.77;;;2.97;;
3991;SDS011;2010;48.194;16.394;2023-05-01T11:40:20;3.10;;;2.90;;
3991;SDS011;2010;48.194;16.394;2023-05-01T11:43:04;3.47;;;2.50;;
3991;SDS011;2010;48.194;16.394;2023-05-01T11:45:38;3.07;;;2.60;;
3991;SDS011;2010;48.194;16.394;2023-05-01T11:48:15;2.73;;;2.53;;
3991;SDS011;2010;48.194;16.394;2023-05-01T11:50:46;4.83;;;2.33;;
3991;SDS011;2010;48.194;16.394;2023-05-01T11:53:14;2.47;;;2.37;;
3991;SDS011;2010;48.194;16.394;2023-05-01T11:55:44;3.30;;;3.00;;
3991;SDS011;2010;48.194;16.394;2023-05-01T11:58:19;2.97;;;2.70;;
3991;SDS011;2010;48.194;16.394;2023-05-01T12:00:59;4.33;;;2.43;;
3991;SDS011;2010;48.194;16.394;2023-05-01T12:03:31;3.30;;;2.80;;
3991;SDS011;2010;48.194;16.394;2023-05-01T12:06:11;3.87;;;3.57;;
3991;SDS011;2010;48.194;16.394;2023-05-01T12:08:50;3.37;;;2.60;;
3991;SDS011;2010;48.194;16.394;2023-05-01T12:11:22;2.80;;;2.30;;
3991;SDS011;2010;48.194;16.394;2023-05-01T12:13:57;2.37;;;2.20;;
3991;SDS011;2010;48.194;16.394;2023-05-01T12:16:29;4.87;;;2.70;;
3991;SDS011;2010;48.194;16.394;2023-05-01T12:19:07;4.10;;;2.50;;
3991;SDS011;2010;48.194;16.394;2023-05-01T12:21:42;6.87;;;2.90;;
3991;SDS011;2010;48.194;16.394;2023-05-01T12:24:16;5.93;;;2.50;;
3991;SDS011;2010;48.194;16.394;2023-05-01T12:26:59;2.50;;;2.30;;
3991;SDS011;2010;48.194;16.394;2023-05-01T12:29:42;7.13;;;2.20;;
3991;SDS011;2010;48.194;16.394;2023-05-01T12:32:17;2.30;;;2.20;;
3991;SDS011;2010;48.194;16.394;2023-05-01T12:34:48;2.13;;;2.03;;
3991;SDS011;2010;48.194;16.394;2023-05-01T12:37:18;2.30;;;2.10;;
3991;SDS011;2010;48.194;16.394;2023-05-01T12:39:46;2.50;;;2.27;;
3991;SDS011;2010;48.194;16.394;2023-05-01T12:42:16;2.77;;;2.50;;
3991;SDS011;2010;48.194;16.394;2023-05-01T12:44:56;2.40;;;2.20;;
3991;SDS011;2010;48.194;16.394;2023-05-01T12:47:35;3.27;;;2.47;;
3991;SDS011;2010;48.194;16.394;2023-05-01T12:50:05;2.40;;;2.23;;
3991;SDS011;2010;48.194;16.394;2023-05-01T12:52:45;5.70;;;3.03;;
3991;SDS011;2010;48.194;16.394;2023-05-01T12:55:22;2.90;;;2.70;;
3991;SDS011;2010;48.194;16.394;2023-05-01T12:57:53;2.40;;;2.20;;
3991;SDS011;2010;48.194;16.394;2023-05-01T13:00:37;2.30;;;2.20;;
3991;SDS011;2010;48.194;16.394;2023-05-01T13:03:11;2.30;;;2.20;;
3991;SDS011;2010;48.194;16.394;2023-05-01T13:05:55;3.30;;;2.70;;
3991;SDS011;2010;48.194;16.394;2023-05-01T13:08:29;2.53;;;2.33;;
3991;SDS011;2010;48.194;16.394;2023-05-01T13:11:00;2.67;;;2.47;;
3991;SDS011;2010;48.194;16.394;2023-05-01T13:13:35;3.37;;;2.37;;
3991;SDS011;2010;48.194;16.394;2023-05-01T13:16:07;2.20;;;2.00;;
3991;SDS011;2010;48.194;16.394;2023-05-01T13:18:45;2.23;;;2.13;;
3991;SDS011;2010;48.194;16.394;2023-05-01T13:21:18;3.70;;;2.10;;
3991;SDS011;2010;48.194;16.394;2023-05-01T13:23:52;2.33;;;2.13;;
3991;SDS011;2010;48.194;16.394;2023-05-01T13:26:27;2.70;;;2.27;;
3991;SDS011;2010;48.194;16.394;2023-05-01T13:29:02;3.70;;;2.47;;
3991;SDS011;2010;48.194;16.394;2023-05-01T13:31:46;3.13;;;2.00;;
3991;SDS011;2010;48.194;16.394;2023-05-01T13:34:20;2.80;;;2.50;;
3991;SDS011;2010;48.194;16.394;2023-05-01T13:36:59;3.20;;;2.70;;
3991;SDS011;2010;48.194;16.394;2023-05-01T13:39:29;2.53;;;2.40;;
3991;SDS011;2010;48.194;16.394;2023-05-01T13:42:01;2.10;;;2.00;;
3991;SDS011;2010;48.194;16.394;2023-05-01T13:44:32;2.00;;;1.90;;
3991;SDS011;2010;48.194;16.394;2023-05-01T13:47:21;2.47;;;2.27;;
3991;SDS011;2010;48.194;16.394;2023-05-01T13:49:53;2.63;;;2.40;;
3991;SDS011;2010;48.194;16.394;2023-05-01T13:52:25;2.83;;;2.50;;
3991;SDS011;2010;48.194;16.394;2023-05-01T13:54:54;2.70;;;2.10;;
3991;SDS011;2010;48.194;16.394;2023-05-01T13:57:24;5.07;;;2.20;;
3991;SDS011;2010;48.194;16.394;2023-05-01T13:59:52;3.63;;;2.30;;
3991;SDS011;2010;48.194;16.394;2023-05-01T14:02:27;3.10;;;2.40;;
3991;SDS011;2010;48.194;16.394;2023-05-01T14:04:57;3.37;;;1.90;;
3991;SDS011;2010;48.194;16.394;2023-05-01T14:07:29;2.53;;;1.93;;
3991;SDS011;2010;48.194;16.394;2023-05-01T14:10:08;2.53;;;2.23;;
3991;SDS011;2010;48.194;16.394;2023-05-01T14:12:38;3.43;;;2.30;;
3991;SDS011;2010;48.194;16.394;2023-05-01T14:15:09;2.60;;;2.20;;
3991;SDS011;2010;48.194;16.394;2023-05-01T14:17:49;2.03;;;1.93;;
3991;SDS011;2010;48.194;16.394;2023-05-01T14:20:20;2.00;;;1.90;;
3991;SDS011;2010;48.194;16.394;2023-05-01T14:22:50;3.47;;;1.70;;
3991;SDS011;2010;48.194;16.394;2023-05-01T14:25:23;2.07;;;1.97;;
3991;SDS011;2010;48.194;16.394;2023-05-01T14:27:54;6.63;;;2.30;;
3991;SDS011;2010;48.194;16.394;2023-05-01T14:30:31;2.10;;;1.90;;
3991;SDS011;2010;48.194;16.394;2023-05-01T14:33:12;5.63;;;2.00;;
3991;SDS011;2010;48.194;16.394;2023-05-01T14:35:46;2.70;;;2.50;;
3991;SDS011;2010;48.194;16.394;2023-05-01T14:38:18;4.80;;;2.23;;
3991;SDS011;2010;48.194;16.394;2023-05-01T14:40:48;2.07;;;1.97;;
3991;SDS011;2010;48.194;16.394;2023-05-01T14:43:17;2.30;;;2.10;;
3991;SDS011;2010;48.194;16.394;2023-05-01T14:45:58;2.20;;;2.10;;
3991;SDS011;2010;48.194;16.394;2023-05-01T14:48:34;2.80;;;1.97;;
3991;SDS011;2010;48.194;16.394;2023-05-01T14:51:02;2.43;;;2.23;;
3991;SDS011;2010;48.194;16.394;2023-05-01T14:53:33;2.80;;;2.10;;
3991;SDS011;2010;48.194;16.394;2023-05-01T14:56:01;1.73;;;1.63;;
3991;SDS011;2010;48.194;16.394;2023-05-01T14:58:29;1.97;;;1.77;;
3991;SDS011;2010;48.194;16.394;2023-05-01T15:01:01;3.07;;;2.20;;
3991;SDS011;2010;48.194;16.394;2023-05-01T15:03:34;2.00;;;1.90;;
3991;SDS011;2010;48.194;16.394;2023-05-01T15:06:33;2.20;;;2.10;;
3991;SDS011;2010;48.194;16.394;2023-05-01T15:09:11;2.80;;;2.23;;
3991;SDS011;2010;48.194;16.394;2023-05-01T15:11:43;3.00;;;1.93;;
3991;SDS011;2010;48.194;16.394;2023-05-01T15:14:14;4.40;;;1.93;;
3991;SDS011;2010;48.194;16.394;2023-05-01T15:16:50;2.70;;;2.20;;
3991;SDS011;2010;48.194;16.394;2023-05-01T15:19:24;2.60;;;2.40;;
3991;SDS011;2010;48.194;16.394;2023-05-01T15:21:54;5.07;;;2.20;;
3991;SDS011;2010;48.194;16.394;2023-05-01T15:24:26;2.97;;;1.80;;
3991;SDS011;2010;48.194;16.394;2023-05-01T15:26:54;6.00;;;2.57;;
3991;SDS011;2010;48.194;16.394;2023-05-01T15:29:24;2.67;;;2.47;;
3991;SDS011;2010;48.194;16.394;2023-05-01T15:32:04;1.97;;;1.87;;
3991;SDS011;2010;48.194;16.394;2023-05-01T15:34:43;2.13;;;1.97;;
3991;SDS011;2010;48.194;16.394;2023-05-01T15:37:16;2.63;;;2.47;;
3991;SDS011;2010;48.194;16.394;2023-05-01T15:40:01;7.90;;;2.40;;
3991;SDS011;2010;48.194;16.394;2023-05-01T15:42:32;2.77;;;2.50;;
3991;SDS011;2010;48.194;16.394;2023-05-01T15:45:06;1.97;;;1.80;;
3991;SDS011;2010;48.194;16.394;2023-05-01T15:47:37;2.43;;;2.00;;
3991;SDS011;2010;48.194;16.394;2023-05-01T15:50:23;2.13;;;1.90;;
3991;SDS011;2010;48.194;16.394;2023-05-01T15:52:58;2.73;;;2.53;;
3991;SDS011;2010;48.194;16.394;2023-05-01T15:55:29;2.17;;;1.90;;
3991;SDS011;2010;48.194;16.394;2023-05-01T15:57:57;3.27;;;1.97;;
3991;SDS011;2010;48.194;16.394;2023-05-01T16:00:29;4.30;;;2.20;;
3991;SDS011;2010;48.194;16.394;2023-05-01T16:03:00;2.57;;;2.30;;
3991;SDS011;2010;48.194;16.394;2023-05-01T16:05:43;2.03;;;1.93;;
3991;SDS011;2010;48.194;16.394;2023-05-01T16:08:15;3.60;;;2.40;;
3991;SDS011;2010;48.194;16.394;2023-05-01T16:10:45;3.77;;;1.87;;